Time;durP1;ratioP1;P1;durP2;ratioP2;P2;SDS_P1;SDS_P2;PMS_P1;PMS_P2;Temp;Humidity;BMP_temperature;BMP_pressure;BME280_temperature;BME280_humidity;BME280_pressure;Samples;Min_cycle;Max_cycle;Signal;HPM_P1;HPM_P2
2022/08/02 00:01:57;;;;;;;3.40;3.20;;;;;;;16.85;100.00;101746.19;5307342;28;20015;-78
2022/08/02 00:04:27;;;;;;;3.47;3.25;;;;;;;17.04;100.00;101781.88;5287917;28;20020;-80
2022/08/02 00:06:58;;;;;;;3.22;3.03;;;;;;;16.86;100.00;101773.19;5307791;28;20015;-81
2022/08/02 00:09:28;;;;;;;4.60;3.53;;;;;;;17.07;100.00;101786.78;5307045;28;20028;-81
2022/08/02 00:11:59;;;;;;;3.83;3.45;;;;;;;17.00;100.00;101778.91;5288666;28;20057;-79
2022/08/02 00:14:29;;;;;;;4.78;3.50;;;;;;;17.11;100.00;101799.59;5287860;28;20114;-79
2022/08/02 00:16:59;;;;;;;2.72;2.53;;;;;;;17.10;100.00;101786.22;5307373;28;20024;-82
2022/08/02 00:19:30;;;;;;;2.85;2.63;;;;;;;17.08;100.00;101782.94;5289454;28;20081;-80
2022/08/02 00:22:00;;;;;;;3.65;3.28;;;;;;;16.81;100.00;101761.47;5308018;28;20020;-80
2022/08/02 00:24:31;;;;;;;3.30;2.53;;;;;;;16.82;100.00;101757.63;5308032;28;20023;-82
2022/08/02 00:27:02;;;;;;;5.45;2.60;;;;;;;16.82;100.00;101776.72;5306948;28;20469;-82
2022/08/02 00:29:34;;;;;;;2.40;2.30;;;;;;;16.32;100.00;101685.69;5307262;28;20024;-83
2022/08/02 00:32:04;;;;;;;2.97;2.80;;;;;;;16.63;100.00;101753.81;5288971;28;20020;-79
2022/08/02 00:34:35;;;;;;;2.88;2.78;;;;;;;16.70;100.00;101779.78;5305613;28;20079;-83
2022/08/02 00:37:05;;;;;;;2.70;2.60;;;;;;;16.63;100.00;101773.75;5288371;28;20028;-83
2022/08/02 00:39:36;;;;;;;2.58;2.47;;;;;;;16.70;100.00;101787.94;5289419;28;20020;-81
2022/08/02 00:42:06;;;;;;;5.05;3.50;;;;;;;16.57;100.00;101777.56;5307386;28;20020;-80
2022/08/02 00:44:37;;;;;;;3.03;2.72;;;;;;;16.61;100.00;101792.28;5306719;28;20023;-79
2022/08/02 00:47:07;;;;;;;4.32;3.45;;;;;;;16.60;100.00;101792.56;5306480;28;20020;-81
2022/08/02 00:49:38;;;;;;;2.50;2.40;;;;;;;16.47;100.00;101792.00;5306783;28;20057;-82
2022/08/02 00:52:08;;;;;;;3.33;3.13;;;;;;;16.23;100.00;101739.13;5305410;28;20047;-82
2022/08/02 00:54:39;;;;;;;3.65;3.30;;;;;;;16.32;100.00;101756.56;5305786;28;20015;-81
2022/08/02 00:57:09;;;;;;;3.42;3.22;;;;;;;16.52;100.00;101780.28;5305701;28;20039;-78
2022/08/02 00:59:40;;;;;;;3.45;3.13;;;;;;;16.58;100.00;101775.66;5305978;28;20028;-78
2022/08/02 01:02:11;;;;;;;3.30;3.10;;;;;;;16.26;100.00;101721.41;5305449;28;20087;-82
2022/08/02 01:04:41;;;;;;;3.55;3.35;;;;;;;16.32;100.00;101731.22;5286955;28;20015;-82
2022/08/02 01:07:13;;;;;;;3.00;2.90;;;;;;;16.49;100.00;101764.47;5285312;28;20019;-80
2022/08/02 01:09:44;;;;;;;3.38;3.28;;;;;;;16.53;100.00;101784.63;5305025;28;20023;-81
2022/08/02 01:12:15;;;;;;;2.92;2.72;;;;;;;16.15;100.00;101729.59;5306488;28;20058;-81
2022/08/02 01:14:48;;;;;;;2.53;2.42;;;;;;;16.11;100.00;101714.06;5305129;28;20023;-80
2022/08/02 01:17:32;;;;;;;3.38;3.13;;;;;;;16.42;100.00;101770.22;5305053;28;20023;-78
2022/08/02 01:20:06;;;;;;;3.45;3.25;;;;;;;16.44;100.00;101768.03;5305091;28;20019;-78
2022/08/02 01:23:06;;;;;;;6.30;3.40;;;;;;;16.44;100.00;101773.50;5306109;28;20026;-78
2022/08/02 01:25:36;;;;;;;3.40;3.15;;;;;;;16.42;100.00;101769.41;5290215;28;20439;-78
2022/08/02 01:28:19;;;;;;;3.25;3.03;;;;;;;16.35;100.00;101758.75;5303904;28;20019;-79
2022/08/02 01:31:06;;;;;;;3.17;3.08;;;;;;;16.31;100.00;101756.84;5303983;28;20028;-79
2022/08/02 01:33:43;;;;;;;3.10;2.90;;;;;;;16.28;100.00;101758.19;5304649;28;20034;-80
2022/08/02 01:36:16;;;;;;;3.53;3.15;;;;;;;16.19;100.00;101755.19;5303678;28;20702;-81
2022/08/02 01:38:49;;;;;;;3.40;3.20;;;;;;;16.14;100.00;101747.03;5304108;28;20047;-81
2022/08/02 01:41:22;;;;;;;3.95;3.78;;;;;;;15.86;100.00;101706.69;5304222;28;20020;-82
2022/08/02 01:43:56;;;;;;;14.00;3.38;;;;;;;15.98;100.00;101734.47;5303667;28;20076;-80
2022/08/02 01:46:29;;;;;;;5.07;3.38;;;;;;;16.15;100.00;101754.13;5286030;28;20102;-81
2022/08/02 01:49:03;;;;;;;3.17;2.92;;;;;;;15.81;100.00;101703.97;5285193;28;20016;-79
2022/08/02 01:54:30;;;;;;;2.97;2.83;;;;;;;16.10;100.00;101729.59;5304119;28;20099;-79
2022/08/02 01:57:04;;;;;;;4.63;3.10;;;;;;;16.23;100.00;101762.81;5303961;28;20028;-82
2022/08/02 01:59:35;;;;;;;5.75;3.88;;;;;;;15.88;100.00;101694.41;5303536;28;20019;-82
2022/08/02 02:02:08;;;;;;;4.43;3.20;;;;;;;16.08;100.00;101731.78;5304974;28;20023;-82
2022/08/02 02:04:39;;;;;;;4.72;4.35;;;;;;;15.95;100.00;101709.66;5284133;28;20027;-82
2022/08/02 02:07:14;;;;;;;3.63;3.33;;;;;;;16.29;100.00;101748.94;5286338;28;20057;-78
2022/08/02 02:09:45;;;;;;;3.45;3.28;;;;;;;16.16;100.00;101728.50;5285444;28;20485;-81
2022/08/02 02:12:18;;;;;;;5.90;3.28;;;;;;;16.28;100.00;101735.56;5304106;28;20035;-77
2022/08/02 02:14:49;;;;;;;4.35;4.05;;;;;;;16.27;100.00;101726.59;5285580;28;20103;-78
2022/08/02 02:17:21;;;;;;;3.95;3.75;;;;;;;16.25;100.00;101719.78;5303887;28;20043;-79
2022/08/02 02:19:53;;;;;;;11.27;3.80;;;;;;;16.33;100.00;101717.31;5288867;28;20030;-81
2022/08/02 02:22:23;;;;;;;3.55;3.33;;;;;;;16.07;100.00;101672.91;5308115;28;20027;-80
2022/08/02 02:24:54;;;;;;;3.55;3.28;;;;;;;16.27;100.00;101707.50;5308057;28;20106;-78
2022/08/02 02:27:26;;;;;;;4.32;3.90;;;;;;;16.08;100.00;101688.16;5305555;28;20023;-79
2022/08/02 02:29:56;;;;;;;3.25;3.03;;;;;;;16.10;100.00;101696.91;5306032;28;20020;-78
2022/08/02 02:32:28;;;;;;;4.78;4.10;;;;;;;16.10;100.00;101702.34;5288740;28;20027;-78
2022/08/02 02:35:02;;;;;;;4.03;3.83;;;;;;;16.06;100.00;101705.88;5306344;28;20027;-76
2022/08/02 02:37:34;;;;;;;8.05;4.72;;;;;;;15.80;100.00;101675.09;5288573;28;20458;-80
2022/08/02 02:40:07;;;;;;;4.32;3.95;;;;;;;15.86;100.00;101693.88;5307767;28;20069;-80
2022/08/02 02:42:40;;;;;;;5.68;3.03;;;;;;;15.81;100.00;101695.78;5306938;28;20019;-78
2022/08/02 02:45:12;;;;;;;7.90;3.97;;;;;;;15.46;100.00;101651.03;5306192;28;20034;-81
2022/08/02 02:47:43;;;;;;;4.68;4.15;;;;;;;15.90;100.00;101707.75;5287053;28;20027;-80
2022/08/02 02:50:16;;;;;;;4.53;4.30;;;;;;;15.83;100.00;101702.59;5287927;28;20028;-78
2022/08/02 02:52:47;;;;;;;4.88;4.00;;;;;;;15.79;100.00;101697.97;5308837;28;20031;-81
2022/08/02 02:55:18;;;;;;;5.20;4.80;;;;;;;15.67;100.00;101675.59;5309326;28;20023;-78
2022/08/02 02:57:49;;;;;;;5.43;5.03;;;;;;;15.48;100.00;101651.59;5308874;28;20024;-78
2022/08/02 03:01:26;;;;;;;6.43;3.88;;;;;;;15.79;100.00;101700.69;5308201;28;20031;-80
2022/08/02 03:03:12;;;;;;;7.65;5.07;;;;;;;15.72;100.00;101672.88;5304496;28;20092;-80
2022/08/02 03:05:42;;;;;;;4.53;4.32;;;;;;;15.71;100.00;101673.97;5300685;28;20055;-78
2022/08/02 03:08:13;;;;;;;5.28;4.80;;;;;;;15.66;100.00;101668.50;5308218;28;20016;-78
2022/08/02 03:10:44;;;;;;;11.82;4.45;;;;;;;15.69;100.00;101678.88;5290518;28;20027;-79
2022/08/02 03:13:16;;;;;;;4.55;4.15;;;;;;;15.69;100.00;101678.88;5307754;28;20079;-80
2022/08/02 03:15:47;;;;;;;4.07;3.70;;;;;;;15.93;100.00;101703.69;5308227;28;20023;-81
2022/08/02 03:18:40;;;;;;;4.95;4.65;;;;;;;15.85;100.00;101684.09;5308014;28;20027;-79
2022/08/02 03:21:12;;;;;;;4.65;4.25;;;;;;;16.01;100.00;101694.97;5307871;28;20041;-81
2022/08/02 03:23:44;;;;;;;4.47;4.28;;;;;;;16.01;100.00;101700.41;5307337;28;20023;-80
2022/08/02 03:26:14;;;;;;;5.18;4.78;;;;;;;15.87;100.00;101681.09;5291537;28;20047;-80
2022/08/02 03:28:45;;;;;;;6.07;4.32;;;;;;;15.66;100.00;101657.63;5309265;28;20022;-82
2022/08/02 03:31:15;;;;;;;4.80;4.60;;;;;;;15.85;100.00;101694.16;5308058;28;20023;-80
2022/08/02 03:33:46;;;;;;;5.35;5.00;;;;;;;15.87;100.00;101700.16;5308535;28;20030;-79
2022/08/02 03:36:20;;;;;;;8.68;6.18;;;;;;;15.85;100.00;101694.97;5307802;28;20046;-78
2022/08/02 03:38:51;;;;;;;5.68;5.30;;;;;;;15.71;100.00;101682.13;5307723;28;20027;-77
2022/08/02 03:41:23;;;;;;;4.50;4.30;;;;;;;15.33;100.00;101646.09;5308345;28;20023;-80
2022/08/02 03:43:55;;;;;;;4.57;4.28;;;;;;;15.56;100.00;101682.94;5306866;28;20024;-81
2022/08/02 03:46:26;;;;;;;4.10;3.80;;;;;;;15.60;100.00;101699.53;5308353;28;20011;-79
2022/08/02 03:48:57;;;;;;;4.82;4.53;;;;;;;15.56;100.00;101712.03;5307234;28;20050;-78
2022/08/02 03:51:27;;;;;;;4.85;4.55;;;;;;;15.45;100.00;101705.75;5289184;28;20024;-78
2022/08/02 03:53:58;;;;;;;4.90;4.38;;;;;;;15.43;100.00;101707.91;5288432;28;20015;-81
2022/08/02 03:56:29;;;;;;;5.15;4.82;;;;;;;15.24;100.00;101680.38;5306975;28;20019;-78
2022/08/02 03:59:11;;;;;;;5.53;5.05;;;;;;;15.04;100.00;101650.34;5288213;28;20031;-79
2022/08/02 04:01:41;;;;;;;4.78;4.38;;;;;;;15.32;100.00;101692.63;5288932;28;20027;-78
2022/08/02 04:04:12;;;;;;;10.88;4.85;;;;;;;15.15;100.00;101665.66;5306765;28;20027;-80
2022/08/02 04:06:42;;;;;;;7.40;6.13;;;;;;;15.25;100.00;101673.84;5289749;28;20039;-80
2022/08/02 04:09:13;;;;;;;6.03;5.72;;;;;;;15.17;100.00;101645.25;5307031;28;20075;-80
2022/08/02 04:11:43;;;;;;;7.10;6.13;;;;;;;15.30;100.00;101665.72;5307822;28;20031;-82
2022/08/02 04:14:14;;;;;;;7.68;6.97;;;;;;;15.24;100.00;101649.63;5289221;28;20027;-82
2022/08/02 04:16:52;;;;;;;7.78;6.10;;;;;;;15.43;100.00;101665.19;5286371;28;20027;-79
2022/08/02 04:19:31;;;;;;;8.10;5.55;;;;;;;15.25;100.00;101641.19;5286920;28;20121;-79
2022/08/02 04:22:03;;;;;;;7.53;6.83;;;;;;;15.34;100.00;101665.97;5291265;22;20066;-67
2022/08/02 04:24:38;;;;;;;7.20;6.70;;;;;;;15.36;100.00;101678.22;5255786;28;20038;-65
2022/08/02 04:27:09;;;;;;;6.43;6.10;;;;;;;15.38;100.00;101678.78;5264354;28;20016;-64
2022/08/02 04:29:41;;;;;;;6.28;5.88;;;;;;;15.37;100.00;101682.56;5264399;28;20050;-65
2022/08/02 04:32:12;;;;;;;7.50;6.82;;;;;;;15.42;100.00;101685.31;5264496;28;20028;-66
2022/08/02 04:34:43;;;;;;;6.35;5.80;;;;;;;15.44;100.00;101690.50;5263512;28;20099;-66
2022/08/02 04:37:14;;;;;;;6.57;5.90;;;;;;;15.49;100.00;101690.50;5264434;28;20414;-64
2022/08/02 04:39:44;;;;;;;5.75;5.07;;;;;;;15.51;100.00;101677.47;5264452;28;20073;-65
2022/08/02 04:42:22;;;;;;;6.38;5.88;;;;;;;15.56;100.00;101691.13;5264196;28;20414;-65
2022/08/02 04:44:53;;;;;;;7.38;6.78;;;;;;;15.48;100.00;101675.28;5263820;28;20049;-66
2022/08/02 04:47:24;;;;;;;14.82;8.73;;;;;;;15.64;100.00;101689.75;5264641;28;20426;-66
2022/08/02 04:49:54;;;;;;;5.95;5.10;;;;;;;15.65;100.00;101683.22;5264066;28;20122;-66
2022/08/02 04:52:24;;;;;;;5.78;5.38;;;;;;;15.70;100.00;101696.84;5246357;28;20043;-65
2022/08/02 04:54:55;;;;;;;8.07;7.40;;;;;;;15.70;100.00;101685.94;5242160;28;20115;-65
2022/08/02 05:00:14;;;;;;;7.10;6.35;;;;;;;15.78;100.00;101688.16;5243443;28;20142;-65
2022/08/02 05:02:44;;;;;;;6.85;6.45;;;;;;;15.81;100.00;101674.81;5242469;28;20044;-65
2022/08/02 05:05:15;;;;;;;8.25;6.90;;;;;;;15.96;100.00;101690.34;5242591;28;20020;-65
2022/08/02 05:07:46;;;;;;;7.35;6.45;;;;;;;15.98;100.00;101688.16;5242590;28;20052;-65
2022/08/02 05:10:16;;;;;;;9.13;8.13;;;;;;;16.11;100.00;101693.06;5224055;28;20395;-66
2022/08/02 05:12:47;;;;;;;8.15;7.32;;;;;;;16.19;100.00;101688.97;5242384;28;20175;-66
2022/08/02 05:15:17;;;;;;;10.18;8.07;;;;;;;16.28;100.00;101702.88;5242736;28;20028;-66
2022/08/02 05:17:48;;;;;;;7.53;6.93;;;;;;;16.30;100.00;101679.69;5244515;28;20521;-66
2022/08/02 05:20:19;;;;;;;7.85;6.93;;;;;;;16.43;100.00;101695.50;5262674;28;20374;-66
2022/08/02 05:22:49;;;;;;;9.05;7.82;;;;;;;16.49;100.00;101699.84;5256973;28;20107;-66
2022/08/02 05:25:19;;;;;;;7.85;7.35;;;;;;;16.51;100.00;101702.28;5242185;28;20043;-66
2022/08/02 05:27:50;;;;;;;9.05;8.15;;;;;;;16.61;100.00;101696.03;5242843;28;20103;-66
2022/08/02 05:30:20;;;;;;;8.98;6.75;;;;;;;16.65;100.00;101692.50;5243662;28;20113;-66
2022/08/02 05:32:51;;;;;;;8.52;7.13;;;;;;;16.79;100.00;101701.72;5243119;28;20099;-66
2022/08/02 05:35:23;;;;;;;7.57;6.95;;;;;;;16.90;100.00;101707.16;5242623;28;20115;-64
2022/08/02 05:37:54;;;;;;;9.63;8.70;;;;;;;16.97;100.00;101710.41;5243234;28;20418;-65
2022/08/02 05:40:24;;;;;;;10.70;7.60;;;;;;;17.07;100.00;101713.91;5242843;28;20034;-65
2022/08/02 05:42:55;;;;;;;9.52;8.77;;;;;;;17.14;100.00;101713.63;5224938;28;20403;-64
2022/08/02 05:45:25;;;;;;;7.97;7.38;;;;;;;17.22;100.00;101721.22;5223844;28;20048;-64
2022/08/02 05:47:55;;;;;;;7.65;6.30;;;;;;;17.29;100.00;101716.28;5242564;28;20032;-65
2022/08/02 05:50:26;;;;;;;14.38;13.38;;;;;;;17.31;100.00;101705.91;5242362;28;20021;-64
2022/08/02 05:53:12;;;;;;;9.65;8.88;;;;;;;17.45;100.00;101714.28;5242342;28;20038;-64
2022/08/02 05:55:51;;;;;;;8.05;7.50;;;;;;;17.46;100.00;101707.75;5227505;28;20025;-65
2022/08/02 05:58:34;;;;;;;8.38;7.65;;;;;;;17.55;100.00;101719.72;5246653;28;20424;-64
2022/08/02 06:01:06;;;;;;;9.27;8.25;;;;;;;17.54;100.00;101707.97;5246710;28;20028;-64
2022/08/02 06:03:47;;;;;;;6.53;6.13;;;;;;;17.67;100.00;101717.47;5245885;28;20024;-64
2022/08/02 06:06:23;;;;;;;10.55;8.75;;;;;;;17.72;100.00;101711.97;5246566;28;20020;-65
2022/08/02 06:09:09;;;;;;;8.52;7.82;;;;;;;17.75;100.00;101713.31;5246705;28;20020;-64
2022/08/02 06:11:48;;;;;;;6.28;5.95;;;;;;;17.91;100.00;101725.78;5235927;28;20024;-65
2022/08/02 06:14:19;;;;;;;9.83;8.87;;;;;;;17.95;100.00;101713.19;5266994;28;20028;-64
2022/08/02 06:16:50;;;;;;;7.85;7.35;;;;;;;18.02;100.00;101716.41;5267850;28;20091;-65
2022/08/02 06:19:23;;;;;;;5.65;5.35;;;;;;;18.12;100.00;101713.63;5249035;28;20043;-65
2022/08/02 06:21:54;;;;;;;8.40;6.50;;;;;;;18.20;100.00;101710.25;5267197;28;20028;-63
2022/08/02 06:24:25;;;;;;;8.52;7.93;;;;;;;18.23;100.00;101698.72;5266972;28;20097;-64
2022/08/02 06:26:56;;;;;;;6.63;6.22;;;;;;;18.41;100.00;101712.81;5248653;28;20062;-64
2022/08/02 06:29:30;;;;;;;5.72;5.35;;;;;;;18.44;100.00;101688.44;5265339;28;20042;-63
2022/08/02 06:32:01;;;;;;;7.25;6.75;;;;;;;18.62;100.00;101697.84;5264997;28;20032;-62
2022/08/02 06:34:36;;;;;;;6.00;5.47;;;;;;;18.67;100.00;101686.06;5266801;28;20391;-61
2022/08/02 06:37:28;;;;;;;6.90;6.32;;;;;;;18.80;100.00;101691.63;5266691;28;20457;-62
2022/08/02 06:40:13;;;;;;;8.13;6.47;;;;;;;18.99;100.00;101699.09;5266942;28;20032;-62
2022/08/02 06:42:50;;;;;;;4.97;4.68;;;;;;;19.16;100.00;101693.94;5267157;28;20102;-63
2022/08/02 06:45:21;;;;;;;8.32;6.95;;;;;;;19.32;100.00;101689.09;5266886;28;20502;-63
2022/08/02 06:47:53;;;;;;;8.20;6.90;;;;;;;19.61;100.00;101703.50;5267113;28;20028;-63
2022/08/02 06:50:23;;;;;;;8.93;6.07;;;;;;;19.80;100.00;101703.50;5267209;28;20024;-63
2022/08/02 06:52:53;;;;;;;6.57;6.00;;;;;;;19.86;100.00;101683.94;5266823;28;20410;-63
2022/08/02 06:55:24;;;;;;;6.20;5.80;;;;;;;20.15;100.00;101702.13;5266236;28;20043;-63
2022/08/02 06:57:54;;;;;;;6.40;5.80;;;;;;;20.32;100.00;101704.28;5266680;28;20020;-63
2022/08/02 07:00:26;;;;;;;8.68;8.10;;;;;;;20.50;100.00;101712.47;5267311;28;20478;-63
2022/08/02 07:02:57;;;;;;;6.72;6.30;;;;;;;20.51;100.00;101694.91;5267667;28;20032;-64
2022/08/02 07:05:27;;;;;;;8.57;5.88;;;;;;;20.78;100.00;101698.81;5266094;28;20024;-63
2022/08/02 07:07:57;;;;;;;8.25;7.60;;;;;;;20.98;100.00;101711.31;5266510;28;20436;-63
2022/08/02 07:10:28;;;;;;;7.63;5.80;;;;;;;21.21;100.00;101716.63;5247771;28;20081;-63
2022/08/02 07:12:59;;;;;;;6.35;5.88;;;;;;;21.34;100.00;101695.78;5266152;28;20027;-63
2022/08/02 07:15:29;;;;;;;4.88;4.57;;;;;;;21.62;100.00;101707.50;5265979;28;20028;-63
2022/08/02 07:18:00;;;;;;;4.35;4.15;;;;;;;21.71;100.00;101710.31;5266218;28;20031;-63
2022/08/02 07:20:30;;;;;;;8.73;5.82;;;;;;;21.76;100.00;101710.19;5265821;28;20031;-63
2022/08/02 07:23:01;;;;;;;9.23;5.72;;;;;;;21.87;100.00;101717.09;5266146;28;20020;-62
2022/08/02 07:25:31;;;;;;;7.85;5.63;;;;;;;22.00;100.00;101710.72;5266030;28;20038;-62
2022/08/02 07:28:03;;;;;;;8.75;5.07;;;;;;;21.98;100.00;101706.66;5266354;28;20027;-62
2022/08/02 07:30:33;;;;;;;7.45;5.32;;;;;;;22.04;100.00;101703.50;5266123;28;20028;-62
2022/08/02 07:33:04;;;;;;;6.05;5.13;;;;;;;22.14;100.00;101689.50;5266121;28;20472;-63
2022/08/02 07:35:35;;;;;;;6.43;4.68;;;;;;;22.38;100.00;101691.09;5265388;28;20434;-64
2022/08/02 07:38:06;;;;;;;4.68;4.28;;;;;;;22.55;100.00;101691.97;5265937;28;20028;-63
2022/08/02 07:40:36;;;;;;;5.50;5.00;;;;;;;22.70;100.00;101668.75;5266031;28;20024;-63
2022/08/02 07:43:07;;;;;;;3.97;3.78;;;;;;;22.98;100.00;101691.38;5265717;28;20522;-63
2022/08/02 07:45:37;;;;;;;3.83;3.45;;;;;;;22.84;100.00;101633.66;5265570;28;20039;-64
2022/08/02 07:48:09;;;;;;;4.15;3.80;;;;;;;23.48;100.00;101689.03;5265826;28;20066;-63
2022/08/02 07:50:39;;;;;;;6.03;3.70;;;;;;;23.71;100.00;101686.16;5267154;28;20024;-63
2022/08/02 07:53:10;;;;;;;3.50;3.40;;;;;;;23.80;100.00;101698.00;5267716;28;20035;-63
2022/08/02 07:55:40;;;;;;;3.92;3.70;;;;;;;23.87;100.00;101709.38;5267266;28;20472;-63
2022/08/02 07:58:11;;;;;;;11.98;4.00;;;;;;;23.69;100.00;101669.13;5266929;28;20020;-63
2022/08/02 08:00:42;;;;;;;2.83;2.72;;;;;;;23.85;100.00;101706.94;5266610;28;20420;-63
2022/08/02 08:03:13;;;;;;;3.95;3.58;;;;;;;24.04;100.00;101703.00;5266984;28;20031;-64
2022/08/02 08:05:43;;;;;;;6.05;3.88;;;;;;;24.10;100.00;101697.00;5266978;28;20114;-63
2022/08/02 08:08:14;;;;;;;3.53;3.33;;;;;;;24.29;100.00;101699.44;5244237;22;20137;-65
2022/08/02 08:10:45;;;;;;;3.38;3.20;;;;;;;24.35;100.00;101683.50;5229004;28;20076;-65
2022/08/02 08:13:15;;;;;;;4.85;3.08;;;;;;;24.64;100.00;101683.56;5223261;28;20032;-64
2022/08/02 08:15:46;;;;;;;7.95;3.67;;;;;;;24.73;100.00;101687.13;5223046;28;20619;-65
2022/08/02 08:18:16;;;;;;;3.50;3.30;;;;;;;24.78;100.00;101692.47;5223483;28;20017;-64
2022/08/02 08:20:46;;;;;;;3.42;2.53;;;;;;;24.81;100.00;101693.75;5223808;28;20413;-64
2022/08/02 08:23:17;;;;;;;2.45;2.35;;;;;;;24.90;100.00;101700.03;5205761;28;20021;-63
2022/08/02 08:25:47;;;;;;;2.30;2.20;;;;;;;24.99;100.00;101698.06;5223560;28;20028;-63
2022/08/02 08:28:18;;;;;;;2.15;2.05;;;;;;;25.07;100.00;101688.13;5223644;28;20023;-65
2022/08/02 08:30:48;;;;;;;2.05;1.95;;;;;;;25.28;100.00;101688.94;5223330;28;20170;-65
2022/08/02 08:33:19;;;;;;;2.13;2.03;;;;;;;25.40;100.00;101689.03;5224321;28;20041;-64
2022/08/02 08:35:49;;;;;;;3.55;3.35;;;;;;;25.44;97.80;101695.50;5222860;28;20017;-61
2022/08/02 08:38:20;;;;;;;1.92;1.83;;;;;;;25.56;96.66;101701.09;5222780;28;20025;-64
2022/08/02 08:40:51;;;;;;;10.32;3.22;;;;;;;25.72;98.22;101697.75;5222867;28;20107;-64
2022/08/02 08:43:21;;;;;;;1.80;1.80;;;;;;;25.75;94.94;101694.31;5222635;28;20025;-62
2022/08/02 08:45:52;;;;;;;2.38;2.28;;;;;;;25.73;94.67;101689.13;5222984;28;20050;-63
2022/08/02 08:48:24;;;;;;;1.75;1.75;;;;;;;25.88;96.70;101676.63;5221733;28;20021;-61
2022/08/02 08:51:10;;;;;;;3.30;3.10;;;;;;;26.13;97.02;101694.13;5222077;28;20025;-64
2022/08/02 08:53:47;;;;;;;2.65;2.55;;;;;;;26.41;95.53;101688.81;5221974;28;20032;-64
2022/08/02 08:56:19;;;;;;;7.90;4.13;;;;;;;26.62;97.08;101681.22;5204096;28;20373;-62
2022/08/02 08:58:49;;;;;;;1.88;1.80;;;;;;;26.76;91.93;101689.19;5221678;28;20095;-62
2022/08/02 09:01:20;;;;;;;5.75;2.70;;;;;;;26.85;90.70;101693.44;5222044;28;20025;-62
2022/08/02 09:03:50;;;;;;;3.20;1.88;;;;;;;26.83;90.40;101692.22;5221619;28;20112;-62
2022/08/02 09:06:21;;;;;;;6.57;3.05;;;;;;;27.04;93.01;101683.78;5221878;28;20052;-62
2022/08/02 09:08:51;;;;;;;3.72;2.45;;;;;;;27.13;89.32;101676.16;5221829;28;20025;-62
2022/08/02 09:11:24;;;;;;;4.10;3.75;;;;;;;27.15;87.83;101682.97;5222116;28;20426;-63
2022/08/02 09:14:00;;;;;;;4.88;1.90;;;;;;;27.17;86.28;101691.75;5203793;28;20083;-64
2022/08/02 09:16:30;;;;;;;3.97;2.85;;;;;;;27.20;85.55;101688.28;5221850;28;20036;-62
2022/08/02 09:19:17;;;;;;;4.70;1.70;;;;;;;27.24;83.04;101680.06;5221729;28;20029;-61
2022/08/02 09:21:49;;;;;;;3.85;2.55;;;;;;;27.22;83.42;101669.31;5203368;28;20503;-68
2022/08/02 09:24:22;;;;;;;1.80;1.80;;;;;;;27.10;85.52;101682.41;5203323;28;20025;-62
2022/08/02 09:26:52;;;;;;;2.15;2.05;;;;;;;26.86;85.76;101667.34;5221662;28;20029;-62
2022/08/02 09:29:23;;;;;;;9.27;2.63;;;;;;;26.83;85.66;101659.75;5224077;28;20112;-63
2022/08/02 09:32:02;;;;;;;2.40;2.30;;;;;;;26.87;85.45;101673.69;5207917;28;20025;-62
2022/08/02 09:34:49;;;;;;;1.95;1.85;;;;;;;26.90;85.03;101679.38;5225443;28;20064;-63
2022/08/02 09:37:27;;;;;;;1.90;1.80;;;;;;;27.01;86.69;101684.50;5226218;28;20033;-63
2022/08/02 09:39:59;;;;;;;2.80;2.17;;;;;;;27.19;86.67;101680.28;5225952;28;20085;-63
2022/08/02 09:42:29;;;;;;;2.53;1.48;;;;;;;27.33;87.71;101677.97;5225554;28;20070;-63
2022/08/02 09:45:01;;;;;;;4.32;3.25;;;;;;;27.54;86.06;101678.59;5207327;28;20388;-62
2022/08/02 09:47:32;;;;;;;2.53;2.33;;;;;;;27.86;87.34;101676.78;5225697;28;20021;-64
2022/08/02 09:50:02;;;;;;;10.30;3.08;;;;;;;27.90;85.52;101661.03;5225445;28;20024;-63
2022/08/02 09:52:35;;;;;;;6.72;2.95;;;;;;;27.87;81.80;101658.97;5225396;28;20511;-63
2022/08/02 09:55:06;;;;;;;3.95;3.65;;;;;;;28.00;83.25;101681.13;5225003;28;20131;-64
2022/08/02 09:57:37;;;;;;;1.90;1.85;;;;;;;28.17;83.21;101687.16;5225427;28;20055;-65
2022/08/02 10:00:12;;;;;;;1.73;1.73;;;;;;;28.35;82.44;101686.84;5225605;28;20383;-64
2022/08/02 10:03:04;;;;;;;2.55;2.17;;;;;;;28.42;82.72;101675.94;5225710;28;20048;-64
2022/08/02 10:05:57;;;;;;;2.50;2.30;;;;;;;28.62;84.74;101674.03;5225202;28;20301;-64
2022/08/02 10:08:29;;;;;;;1.98;1.70;;;;;;;28.80;80.57;101678.09;5225394;28;20047;-64
2022/08/02 10:11:00;;;;;;;2.70;2.47;;;;;;;28.83;80.45;101675.41;5225502;28;20467;-64
2022/08/02 10:13:33;;;;;;;2.88;2.13;;;;;;;28.66;78.07;101677.72;5224789;28;20025;-64
2022/08/02 10:16:05;;;;;;;3.10;2.88;;;;;;;28.72;79.69;101674.31;5225191;28;20248;-64
2022/08/02 10:18:36;;;;;;;3.45;2.58;;;;;;;28.88;79.21;101652.06;5225080;28;20064;-65
2022/08/02 10:21:12;;;;;;;2.15;2.05;;;;;;;29.05;77.12;101645.31;5240669;22;20025;-63
2022/08/02 10:23:44;;;;;;;2.08;1.98;;;;;;;29.39;78.14;101658.41;5250238;28;20035;-62
2022/08/02 10:26:17;;;;;;;1.60;1.58;;;;;;;29.71;79.50;101661.09;5250554;28;20028;-62
2022/08/02 10:28:48;;;;;;;2.58;2.22;;;;;;;29.97;75.82;101663.19;5249278;28;20100;-62
2022/08/02 10:31:27;;;;;;;2.70;2.47;;;;;;;29.78;72.90;101658.41;5249328;28;20086;-62
2022/08/02 10:34:00;;;;;;;16.92;3.65;;;;;;;29.83;74.05;101663.69;5248875;28;20050;-62
2022/08/02 10:36:34;;;;;;;7.63;1.98;;;;;;;29.77;73.10;101667.94;5248895;28;20099;-62
2022/08/02 10:39:05;;;;;;;1.85;1.80;;;;;;;29.28;73.39;101662.94;5248143;28;20024;-62
2022/08/02 10:41:46;;;;;;;1.60;1.50;;;;;;;29.11;76.08;101663.34;5248160;28;20499;-62
2022/08/02 10:44:33;;;;;;;7.50;2.03;;;;;;;29.25;75.76;101649.75;5246968;28;20020;-63
2022/08/02 10:47:13;;;;;;;1.77;1.67;;;;;;;29.44;74.02;101663.72;5248496;28;20024;-62
2022/08/02 10:49:52;;;;;;;1.98;1.88;;;;;;;29.51;73.96;101661.06;5247772;28;20029;-62
2022/08/02 10:52:31;;;;;;;;;;;;;;;29.73;76.51;101655.97;5248635;28;20107;-63
2022/08/02 10:55:23;;;;;;;1.92;1.40;;;;;;;29.86;75.26;101644.28;5247138;28;19977;-62
2022/08/02 10:58:17;;;;;;;8.98;1.88;;;;;;;29.92;74.38;101647.56;5247239;28;20028;-62
2022/08/02 11:00:48;;;;;;;5.30;4.20;;;;;;;30.08;74.87;101637.16;5247520;28;20021;-60
2022/08/02 11:03:28;;;;;;;2.35;2.25;;;;;;;30.40;74.57;101645.28;5245586;28;20111;-62
2022/08/02 11:06:13;;;;;;;2.13;1.92;;;;;;;30.36;72.00;101634.06;5247737;28;20073;-62
2022/08/02 11:08:43;;;;;;;10.63;2.15;;;;;;;30.47;71.20;101651.78;5245655;28;20024;-63
2022/08/02 11:11:16;;;;;;;2.03;1.92;;;;;;;30.25;70.04;101646.22;5247666;28;20020;-62
2022/08/02 11:14:12;;;;;;;1.60;1.50;;;;;;;30.29;69.11;101647.09;5246728;28;20029;-65
2022/08/02 11:16:55;;;;;;;4.13;2.25;;;;;;;30.45;69.59;101640.19;5247327;28;20063;-66
2022/08/02 11:19:26;;;;;;;4.90;1.40;;;;;;;30.54;68.02;101642.75;5247224;28;20052;-66
2022/08/02 11:22:18;;;;;;;1.55;1.45;;;;;;;30.24;65.91;101634.28;5246906;28;20028;-63
2022/08/02 11:24:49;;;;;;;1.40;1.40;;;;;;;29.84;67.13;101616.00;5246489;28;20024;-63
2022/08/02 11:27:20;;;;;;;1.83;1.73;;;;;;;29.93;67.42;101626.91;5246724;28;20028;-64
2022/08/02 11:29:51;;;;;;;1.45;1.45;;;;;;;30.01;67.63;101637.03;5246663;28;20388;-62
2022/08/02 11:32:23;;;;;;;1.90;1.80;;;;;;;29.84;70.20;101626.31;5245782;28;20409;-62
2022/08/02 11:34:54;;;;;;;2.53;1.73;;;;;;;29.90;70.39;101610.94;5246210;28;20028;-62
2022/08/02 11:37:29;;;;;;;0.90;0.90;;;;;;;29.83;69.00;101625.53;5245458;28;20047;-64
2022/08/02 11:40:00;;;;;;;2.17;2.08;;;;;;;29.72;69.73;101632.06;5244949;28;20028;-62
2022/08/02 11:42:35;;;;;;;1.52;1.38;;;;;;;29.70;67.20;101626.88;5246316;28;20031;-67
2022/08/02 11:45:08;;;;;;;17.33;3.42;;;;;;;29.49;68.10;101629.19;5246380;28;20504;-61
2022/08/02 11:47:49;;;;;;;3.33;3.13;;;;;;;29.22;70.19;101625.44;5245867;28;20032;-59
2022/08/02 11:50:24;;;;;;;2.92;2.47;;;;;;;29.01;70.91;101622.19;5246892;28;20058;-64
2022/08/02 11:52:54;;;;;;;2.75;2.55;;;;;;;29.21;72.87;101615.47;5247149;28;20028;-60